sensor_id;sensor_type;location;lat;lon;timestamp;temperature;humidity
48589;DHT22;34369;51.174;6.738;2023-04-25T00:01:06;6.00;61.20
48589;DHT22;34369;51.174;6.738;2023-04-25T00:03:39;5.90;61.40
48589;DHT22;34369;51.174;6.738;2023-04-25T00:06:11;5.90;61.50
48589;DHT22;34369;51.174;6.738;2023-04-25T00:08:44;5.90;61.50
48589;DHT22;34369;51.174;6.738;2023-04-25T00:11:17;5.90;61.50
48589;DHT22;34369;51.174;6.738;2023-04-25T00:13:49;5.90;61.70
48589;DHT22;34369;51.174;6.738;2023-04-25T00:16:23;5.90;61.70
48589;DHT22;34369;51.174;6.738;2023-04-25T00:18:55;5.90;62.00
48589;DHT22;34369;51.174;6.738;2023-04-25T00:21:29;5.90;62.20
48589;DHT22;34369;51.174;6.738;2023-04-25T00:24:02;5.90;62.40
48589;DHT22;34369;51.174;6.738;2023-04-25T00:26:35;6.00;62.60
48589;DHT22;34369;51.174;6.738;2023-04-25T00:29:07;6.00;62.80
48589;DHT22;34369;51.174;6.738;2023-04-25T00:31:40;6.00;62.80
48589;DHT22;34369;51.174;6.738;2023-04-25T00:34:12;6.00;62.80
48589;DHT22;34369;51.174;6.738;2023-04-25T00:36:44;6.10;62.90
48589;DHT22;34369;51.174;6.738;2023-04-25T00:39:16;6.10;63.00
48589;DHT22;34369;51.174;6.738;2023-04-25T00:41:50;6.10;63.00
48589;DHT22;34369;51.174;6.738;2023-04-25T00:44:25;6.10;63.10
48589;DHT22;34369;51.174;6.738;2023-04-25T00:47:00;6.20;63.00
48589;DHT22;34369;51.174;6.738;2023-04-25T00:49:33;6.20;62.90
48589;DHT22;34369;51.174;6.738;2023-04-25T00:52:06;6.30;63.00
48589;DHT22;34369;51.174;6.738;2023-04-25T00:54:39;6.30;62.90
48589;DHT22;34369;51.174;6.738;2023-04-25T00:57:13;6.30;62.90
48589;DHT22;34369;51.174;6.738;2023-04-25T00:59:46;6.40;62.90
48589;DHT22;34369;51.174;6.738;2023-04-25T01:02:18;6.40;62.90
48589;DHT22;34369;51.174;6.738;2023-04-25T01:04:50;6.50;62.80
48589;DHT22;34369;51.174;6.738;2023-04-25T01:07:23;6.50;62.80
48589;DHT22;34369;51.174;6.738;2023-04-25T01:09:57;6.50;62.90
48589;DHT22;34369;51.174;6.738;2023-04-25T01:12:31;6.50;62.80
48589;DHT22;34369;51.174;6.738;2023-04-25T01:15:04;6.50;62.70
48589;DHT22;34369;51.174;6.738;2023-04-25T01:17:36;6.50;62.70
48589;DHT22;34369;51.174;6.738;2023-04-25T01:20:11;6.60;62.70
48589;DHT22;34369;51.174;6.738;2023-04-25T01:22:45;6.60;62.80
48589;DHT22;34369;51.174;6.738;2023-04-25T01:25:18;6.70;62.80
48589;DHT22;34369;51.174;6.738;2023-04-25T01:27:50;6.70;62.80
48589;DHT22;34369;51.174;6.738;2023-04-25T01:30:23;6.70;62.70
48589;DHT22;34369;51.174;6.738;2023-04-25T01:32:56;6.70;62.70
48589;DHT22;34369;51.174;6.738;2023-04-25T01:35:29;6.70;62.70
48589;DHT22;34369;51.174;6.738;2023-04-25T01:38:03;6.70;62.70
48589;DHT22;34369;51.174;6.738;2023-04-25T01:40:38;6.70;62.70
48589;DHT22;34369;51.174;6.738;2023-04-25T01:43:12;6.70;62.80
48589;DHT22;34369;51.174;6.738;2023-04-25T01:45:44;6.70;62.80
48589;DHT22;34369;51.174;6.738;2023-04-25T01:48:17;6.70;62.40
48589;DHT22;34369;51.174;6.738;2023-04-25T01:50:49;6.70;62.30
48589;DHT22;34369;51.174;6.738;2023-04-25T01:53:22;6.70;62.30
48589;DHT22;34369;51.174;6.738;2023-04-25T01:55:55;6.70;62.30
48589;DHT22;34369;51.174;6.738;2023-04-25T01:58:30;6.70;62.30
48589;DHT22;34369;51.174;6.738;2023-04-25T02:01:02;6.70;62.30
48589;DHT22;34369;51.174;6.738;2023-04-25T02:03:36;6.70;62.40
48589;DHT22;34369;51.174;6.738;2023-04-25T02:06:08;6.70;62.40
48589;DHT22;34369;51.174;6.738;2023-04-25T02:08:43;6.70;62.50
48589;DHT22;34369;51.174;6.738;2023-04-25T02:11:15;6.70;62.50
48589;DHT22;34369;51.174;6.738;2023-04-25T02:13:48;6.60;62.50
48589;DHT22;34369;51.174;6.738;2023-04-25T02:16:21;6.60;62.60
48589;DHT22;34369;51.174;6.738;2023-04-25T02:18:53;6.60;62.50
48589;DHT22;34369;51.174;6.738;2023-04-25T02:21:26;6.60;62.50
48589;DHT22;34369;51.174;6.738;2023-04-25T02:23:59;6.50;62.50
48589;DHT22;34369;51.174;6.738;2023-04-25T02:26:33;6.60;62.60
48589;DHT22;34369;51.174;6.738;2023-04-25T02:29:05;6.60;62.70
48589;DHT22;34369;51.174;6.738;2023-04-25T02:31:37;6.70;62.50
48589;DHT22;34369;51.174;6.738;2023-04-25T02:34:09;6.70;62.60
48589;DHT22;34369;51.174;6.738;2023-04-25T02:36:41;6.60;62.50
48589;DHT22;34369;51.174;6.738;2023-04-25T02:39:14;6.70;62.50
48589;DHT22;34369;51.174;6.738;2023-04-25T02:41:46;6.70;62.50
48589;DHT22;34369;51.174;6.738;2023-04-25T02:44:19;6.70;62.40
48589;DHT22;34369;51.174;6.738;2023-04-25T02:46:51;6.70;62.40
48589;DHT22;34369;51.174;6.738;2023-04-25T02:49:23;6.70;62.50
48589;DHT22;34369;51.174;6.738;2023-04-25T02:51:56;6.70;62.40
48589;DHT22;34369;51.174;6.738;2023-04-25T02:54:29;6.70;62.40
48589;DHT22;34369;51.174;6.738;2023-04-25T02:57:02;6.70;62.30
48589;DHT22;34369;51.174;6.738;2023-04-25T02:59:34;6.70;62.30
48589;DHT22;34369;51.174;6.738;2023-04-25T03:02:06;6.70;62.30
48589;DHT22;34369;51.174;6.738;2023-04-25T03:04:38;6.70;62.20
48589;DHT22;34369;51.174;6.738;2023-04-25T03:07:11;6.70;62.30
48589;DHT22;34369;51.174;6.738;2023-04-25T03:09:45;6.70;62.30
48589;DHT22;34369;51.174;6.738;2023-04-25T03:12:17;6.70;62.30
48589;DHT22;34369;51.174;6.738;2023-04-25T03:14:50;6.70;62.30
48589;DHT22;34369;51.174;6.738;2023-04-25T03:17:22;6.70;62.30
48589;DHT22;34369;51.174;6.738;2023-04-25T03:19:55;6.70;62.40
48589;DHT22;34369;51.174;6.738;2023-04-25T03:22:28;6.70;62.40
48589;DHT22;34369;51.174;6.738;2023-04-25T03:25:02;6.70;62.40
48589;DHT22;34369;51.174;6.738;2023-04-25T03:27:35;6.70;62.50
48589;DHT22;34369;51.174;6.738;2023-04-25T03:30:08;6.70;62.40
48589;DHT22;34369;51.174;6.738;2023-04-25T03:32:40;6.70;62.50
48589;DHT22;34369;51.174;6.738;2023-04-25T03:35:12;6.70;62.50
48589;DHT22;34369;51.174;6.738;2023-04-25T03:37:44;6.70;62.50
48589;DHT22;34369;51.174;6.738;2023-04-25T03:40:18;6.70;62.50
48589;DHT22;34369;51.174;6.738;2023-04-25T03:42:50;6.70;62.70
48589;DHT22;34369;51.174;6.738;2023-04-25T03:45:22;6.70;62.70
48589;DHT22;34369;51.174;6.738;2023-04-25T03:47:54;6.70;62.80
48589;DHT22;34369;51.174;6.738;2023-04-25T03:50:26;6.70;62.70
48589;DHT22;34369;51.174;6.738;2023-04-25T03:53:00;6.70;62.90
48589;DHT22;34369;51.174;6.738;2023-04-25T03:55:33;6.70;62.90
48589;DHT22;34369;51.174;6.738;2023-04-25T03:58:05;6.70;62.90
48589;DHT22;34369;51.174;6.738;2023-04-25T04:00:38;6.70;62.90
48589;DHT22;34369;51.174;6.738;2023-04-25T04:03:10;6.70;62.90
48589;DHT22;34369;51.174;6.738;2023-04-25T04:05:42;6.70;62.90
48589;DHT22;34369;51.174;6.738;2023-04-25T04:08:15;6.70;63.00
48589;DHT22;34369;51.174;6.738;2023-04-25T04:10:49;6.70;62.90
48589;DHT22;34369;51.174;6.738;2023-04-25T04:13:21;6.60;63.00
48589;DHT22;34369;51.174;6.738;2023-04-25T04:15:54;6.60;63.00
48589;DHT22;34369;51.174;6.738;2023-04-25T04:18:28;6.60;63.00
48589;DHT22;34369;51.174;6.738;2023-04-25T04:21:00;6.60;62.90
48589;DHT22;34369;51.174;6.738;2023-04-25T04:23:32;6.60;62.90
48589;DHT22;34369;51.174;6.738;2023-04-25T04:26:06;6.50;63.00
48589;DHT22;34369;51.174;6.738;2023-04-25T04:28:39;6.50;63.00
48589;DHT22;34369;51.174;6.738;2023-04-25T04:31:11;6.50;63.00
48589;DHT22;34369;51.174;6.738;2023-04-25T04:33:47;6.50;62.90
48589;DHT22;34369;51.174;6.738;2023-04-25T04:36:20;6.50;62.90
48589;DHT22;34369;51.174;6.738;2023-04-25T04:38:56;6.50;63.00
48589;DHT22;34369;51.174;6.738;2023-04-25T04:41:30;6.50;62.90
48589;DHT22;34369;51.174;6.738;2023-04-25T04:44:02;6.40;63.00
48589;DHT22;34369;51.174;6.738;2023-04-25T04:46:34;6.40;63.00
48589;DHT22;34369;51.174;6.738;2023-04-25T04:49:11;6.40;63.00
48589;DHT22;34369;51.174;6.738;2023-04-25T04:51:44;6.40;63.20
48589;DHT22;34369;51.174;6.738;2023-04-25T04:54:16;6.40;62.80
48589;DHT22;34369;51.174;6.738;2023-04-25T04:56:49;6.40;62.90
48589;DHT22;34369;51.174;6.738;2023-04-25T04:59:22;6.30;63.10
48589;DHT22;34369;51.174;6.738;2023-04-25T05:01:54;6.30;63.10
48589;DHT22;34369;51.174;6.738;2023-04-25T05:04:26;6.30;63.10
48589;DHT22;34369;51.174;6.738;2023-04-25T05:06:59;6.30;63.10
48589;DHT22;34369;51.174;6.738;2023-04-25T05:09:31;6.30;63.20
48589;DHT22;34369;51.174;6.738;2023-04-25T05:12:05;6.30;63.20
48589;DHT22;34369;51.174;6.738;2023-04-25T05:14:37;6.30;63.20
48589;DHT22;34369;51.174;6.738;2023-04-25T05:17:10;6.30;63.30
48589;DHT22;34369;51.174;6.738;2023-04-25T05:19:42;6.30;63.30
48589;DHT22;34369;51.174;6.738;2023-04-25T05:22:15;6.30;63.30
48589;DHT22;34369;51.174;6.738;2023-04-25T05:24:48;6.30;63.30
48589;DHT22;34369;51.174;6.738;2023-04-25T05:27:24;6.30;63.30
48589;DHT22;34369;51.174;6.738;2023-04-25T05:29:56;6.30;63.30
48589;DHT22;34369;51.174;6.738;2023-04-25T05:32:28;6.40;63.10
48589;DHT22;34369;51.174;6.738;2023-04-25T05:35:00;6.40;63.10
48589;DHT22;34369;51.174;6.738;2023-04-25T05:37:33;6.40;63.20
48589;DHT22;34369;51.174;6.738;2023-04-25T05:40:07;6.40;63.10
48589;DHT22;34369;51.174;6.738;2023-04-25T05:42:42;6.40;63.10
48589;DHT22;34369;51.174;6.738;2023-04-25T05:45:14;6.50;63.20
48589;DHT22;34369;51.174;6.738;2023-04-25T05:47:48;6.50;63.00
48589;DHT22;34369;51.174;6.738;2023-04-25T05:50:20;6.50;63.00
48589;DHT22;34369;51.174;6.738;2023-04-25T05:52:53;6.50;62.90
48589;DHT22;34369;51.174;6.738;2023-04-25T05:55:26;6.50;62.70
48589;DHT22;34369;51.174;6.738;2023-04-25T05:57:59;6.50;62.70
48589;DHT22;34369;51.174;6.738;2023-04-25T06:00:31;6.60;62.70
48589;DHT22;34369;51.174;6.738;2023-04-25T06:03:04;6.60;62.80
48589;DHT22;34369;51.174;6.738;2023-04-25T06:05:40;6.70;62.80
48589;DHT22;34369;51.174;6.738;2023-04-25T06:08:13;6.70;62.80
48589;DHT22;34369;51.174;6.738;2023-04-25T06:10:45;6.70;63.00
48589;DHT22;34369;51.174;6.738;2023-04-25T06:13:18;6.90;62.70
48589;DHT22;34369;51.174;6.738;2023-04-25T06:15:51;6.90;62.60
48589;DHT22;34369;51.174;6.738;2023-04-25T06:18:23;7.00;62.50
48589;DHT22;34369;51.174;6.738;2023-04-25T06:20:55;7.00;62.40
48589;DHT22;34369;51.174;6.738;2023-04-25T06:23:27;7.10;62.20
48589;DHT22;34369;51.174;6.738;2023-04-25T06:26:00;7.10;62.20
48589;DHT22;34369;51.174;6.738;2023-04-25T06:28:33;7.20;62.00
48589;DHT22;34369;51.174;6.738;2023-04-25T06:31:06;7.30;61.90
48589;DHT22;34369;51.174;6.738;2023-04-25T06:33:38;7.40;61.60
48589;DHT22;34369;51.174;6.738;2023-04-25T06:36:10;7.50;61.20
48589;DHT22;34369;51.174;6.738;2023-04-25T06:38:42;7.50;61.00
48589;DHT22;34369;51.174;6.738;2023-04-25T06:41:14;7.60;60.90
48589;DHT22;34369;51.174;6.738;2023-04-25T06:43:48;7.60;60.70
48589;DHT22;34369;51.174;6.738;2023-04-25T06:46:20;7.60;60.70
48589;DHT22;34369;51.174;6.738;2023-04-25T06:48:52;7.70;60.50
48589;DHT22;34369;51.174;6.738;2023-04-25T06:51:25;7.80;60.10
48589;DHT22;34369;51.174;6.738;2023-04-25T06:53:59;7.80;59.60
48589;DHT22;34369;51.174;6.738;2023-04-25T06:56:31;7.90;59.60
48589;DHT22;34369;51.174;6.738;2023-04-25T06:59:05;7.90;59.40
48589;DHT22;34369;51.174;6.738;2023-04-25T07:01:37;7.90;59.10
48589;DHT22;34369;51.174;6.738;2023-04-25T07:04:10;8.00;59.20
48589;DHT22;34369;51.174;6.738;2023-04-25T07:06:43;8.00;58.90
48589;DHT22;34369;51.174;6.738;2023-04-25T07:09:18;8.10;58.70
48589;DHT22;34369;51.174;6.738;2023-04-25T07:11:50;8.10;58.90
48589;DHT22;34369;51.174;6.738;2023-04-25T07:14:24;8.20;58.90
48589;DHT22;34369;51.174;6.738;2023-04-25T07:16:56;8.30;58.70
48589;DHT22;34369;51.174;6.738;2023-04-25T07:19:28;8.40;58.50
48589;DHT22;34369;51.174;6.738;2023-04-25T07:22:03;8.50;58.40
48589;DHT22;34369;51.174;6.738;2023-04-25T07:24:36;8.60;58.10
48589;DHT22;34369;51.174;6.738;2023-04-25T07:27:09;8.60;58.00
48589;DHT22;34369;51.174;6.738;2023-04-25T07:29:44;8.80;57.60
48589;DHT22;34369;51.174;6.738;2023-04-25T07:32:17;8.90;57.60
48589;DHT22;34369;51.174;6.738;2023-04-25T07:34:49;9.00;57.10
48589;DHT22;34369;51.174;6.738;2023-04-25T07:37:23;9.00;56.80
48589;DHT22;34369;51.174;6.738;2023-04-25T07:39:55;9.20;56.80
48589;DHT22;34369;51.174;6.738;2023-04-25T07:42:27;9.20;57.20
48589;DHT22;34369;51.174;6.738;2023-04-25T07:45:03;9.30;56.70
48589;DHT22;34369;51.174;6.738;2023-04-25T07:47:36;9.40;56.30
48589;DHT22;34369;51.174;6.738;2023-04-25T07:50:10;9.40;55.70
48589;DHT22;34369;51.174;6.738;2023-04-25T07:52:42;9.50;55.50
48589;DHT22;34369;51.174;6.738;2023-04-25T07:55:15;9.50;55.30
48589;DHT22;34369;51.174;6.738;2023-04-25T07:57:48;9.50;55.00
48589;DHT22;34369;51.174;6.738;2023-04-25T08:00:22;9.40;54.10
48589;DHT22;34369;51.174;6.738;2023-04-25T08:02:54;9.40;53.60
48589;DHT22;34369;51.174;6.738;2023-04-25T08:05:28;9.40;53.90
48589;DHT22;34369;51.174;6.738;2023-04-25T08:08:00;9.30;53.70
48589;DHT22;34369;51.174;6.738;2023-04-25T08:10:32;9.20;53.60
48589;DHT22;34369;51.174;6.738;2023-04-25T08:13:05;9.20;53.60
48589;DHT22;34369;51.174;6.738;2023-04-25T08:15:39;9.10;53.40
48589;DHT22;34369;51.174;6.738;2023-04-25T08:18:11;9.00;53.20
48589;DHT22;34369;51.174;6.738;2023-04-25T08:20:43;9.00;53.60
48589;DHT22;34369;51.174;6.738;2023-04-25T08:23:15;9.00;53.90
48589;DHT22;34369;51.174;6.738;2023-04-25T08:25:47;9.00;54.90
48589;DHT22;34369;51.174;6.738;2023-04-25T08:28:20;9.30;55.80
48589;DHT22;34369;51.174;6.738;2023-04-25T08:30:54;9.70;55.60
48589;DHT22;34369;51.174;6.738;2023-04-25T08:33:27;10.20;55.00
48589;DHT22;34369;51.174;6.738;2023-04-25T08:36:00;10.60;53.50
48589;DHT22;34369;51.174;6.738;2023-04-25T08:38:32;11.00;53.20
48589;DHT22;34369;51.174;6.738;2023-04-25T08:41:05;11.40;52.70
48589;DHT22;34369;51.174;6.738;2023-04-25T08:43:38;11.70;51.00
48589;DHT22;34369;51.174;6.738;2023-04-25T08:46:17;11.90;50.30
48589;DHT22;34369;51.174;6.738;2023-04-25T08:48:52;12.10;49.70
48589;DHT22;34369;51.174;6.738;2023-04-25T08:51:25;12.30;49.10
48589;DHT22;34369;51.174;6.738;2023-04-25T08:54:09;12.40;49.00
48589;DHT22;34369;51.174;6.738;2023-04-25T08:56:45;12.50;48.60
48589;DHT22;34369;51.174;6.738;2023-04-25T08:59:17;12.60;48.20
48589;DHT22;34369;51.174;6.738;2023-04-25T09:01:51;12.80;48.90
48589;DHT22;34369;51.174;6.738;2023-04-25T09:04:23;13.00;48.50
48589;DHT22;34369;51.174;6.738;2023-04-25T09:06:56;13.20;48.40
48589;DHT22;34369;51.174;6.738;2023-04-25T09:09:29;13.40;47.10
48589;DHT22;34369;51.174;6.738;2023-04-25T09:12:01;13.50;46.50
48589;DHT22;34369;51.174;6.738;2023-04-25T09:14:34;13.60;45.80
48589;DHT22;34369;51.174;6.738;2023-04-25T09:17:07;13.50;45.50
48589;DHT22;34369;51.174;6.738;2023-04-25T09:19:39;13.50;45.00
48589;DHT22;34369;51.174;6.738;2023-04-25T09:22:11;13.30;45.00
48589;DHT22;34369;51.174;6.738;2023-04-25T09:24:44;13.10;45.00
48589;DHT22;34369;51.174;6.738;2023-04-25T09:27:20;12.90;44.70
48589;DHT22;34369;51.174;6.738;2023-04-25T09:29:58;12.70;44.50
48589;DHT22;34369;51.174;6.738;2023-04-25T09:32:33;12.50;44.90
48589;DHT22;34369;51.174;6.738;2023-04-25T09:35:06;12.30;44.90
48589;DHT22;34369;51.174;6.738;2023-04-25T09:37:40;12.20;45.70
48589;DHT22;34369;51.174;6.738;2023-04-25T09:40:43;12.20;45.90
48589;DHT22;34369;51.174;6.738;2023-04-25T09:43:20;12.20;45.90
48589;DHT22;34369;51.174;6.738;2023-04-25T09:45:54;12.20;45.50
48589;DHT22;34369;51.174;6.738;2023-04-25T09:48:29;12.30;45.50
48589;DHT22;34369;51.174;6.738;2023-04-25T09:51:06;12.20;45.50
48589;DHT22;34369;51.174;6.738;2023-04-25T09:53:40;12.20;44.80
48589;DHT22;34369;51.174;6.738;2023-04-25T09:56:14;12.10;44.80
48589;DHT22;34369;51.174;6.738;2023-04-25T09:58:47;12.10;44.00
48589;DHT22;34369;51.174;6.738;2023-04-25T10:01:21;11.90;44.40
48589;DHT22;34369;51.174;6.738;2023-04-25T10:03:56;11.80;44.60
48589;DHT22;34369;51.174;6.738;2023-04-25T10:06:31;11.70;44.20
48589;DHT22;34369;51.174;6.738;2023-04-25T10:09:05;11.60;44.60
48589;DHT22;34369;51.174;6.738;2023-04-25T10:11:40;11.50;44.50
48589;DHT22;34369;51.174;6.738;2023-04-25T10:14:13;11.40;44.10
48589;DHT22;34369;51.174;6.738;2023-04-25T10:16:45;11.40;44.70
48589;DHT22;34369;51.174;6.738;2023-04-25T10:19:19;11.40;44.60
48589;DHT22;34369;51.174;6.738;2023-04-25T10:21:55;11.40;44.50
48589;DHT22;34369;51.174;6.738;2023-04-25T10:24:35;11.30;44.60
48589;DHT22;34369;51.174;6.738;2023-04-25T10:27:09;11.30;44.80
48589;DHT22;34369;51.174;6.738;2023-04-25T10:29:43;11.20;45.10
48589;DHT22;34369;51.174;6.738;2023-04-25T10:32:15;11.20;45.30
48589;DHT22;34369;51.174;6.738;2023-04-25T10:34:48;11.20;45.00
48589;DHT22;34369;51.174;6.738;2023-04-25T10:37:21;11.10;44.80
48589;DHT22;34369;51.174;6.738;2023-04-25T10:39:54;11.10;45.10
48589;DHT22;34369;51.174;6.738;2023-04-25T10:42:28;11.10;44.60
48589;DHT22;34369;51.174;6.738;2023-04-25T10:45:04;11.10;44.90
48589;DHT22;34369;51.174;6.738;2023-04-25T10:47:43;11.10;44.90
48589;DHT22;34369;51.174;6.738;2023-04-25T10:50:16;11.00;45.40
48589;DHT22;34369;51.174;6.738;2023-04-25T10:52:49;11.10;45.00
48589;DHT22;34369;51.174;6.738;2023-04-25T10:55:22;11.10;45.00
48589;DHT22;34369;51.174;6.738;2023-04-25T10:57:55;11.20;45.40
48589;DHT22;34369;51.174;6.738;2023-04-25T11:00:27;11.30;45.30
48589;DHT22;34369;51.174;6.738;2023-04-25T11:03:02;11.40;44.20
48589;DHT22;34369;51.174;6.738;2023-04-25T11:05:35;11.40;43.60
48589;DHT22;34369;51.174;6.738;2023-04-25T11:08:11;11.50;43.80
48589;DHT22;34369;51.174;6.738;2023-04-25T11:10:44;11.50;43.30
48589;DHT22;34369;51.174;6.738;2023-04-25T11:13:20;11.50;43.50
48589;DHT22;34369;51.174;6.738;2023-04-25T11:15:52;11.60;43.00
48589;DHT22;34369;51.174;6.738;2023-04-25T11:18:26;11.60;43.50
48589;DHT22;34369;51.174;6.738;2023-04-25T11:20:58;11.70;42.70
48589;DHT22;34369;51.174;6.738;2023-04-25T11:23:30;11.80;42.60
48589;DHT22;34369;51.174;6.738;2023-04-25T11:26:03;11.90;42.90
48589;DHT22;34369;51.174;6.738;2023-04-25T11:28:37;11.90;42.80
48589;DHT22;34369;51.174;6.738;2023-04-25T11:31:09;12.00;43.70
48589;DHT22;34369;51.174;6.738;2023-04-25T11:33:41;12.10;42.90
48589;DHT22;34369;51.174;6.738;2023-04-25T11:36:16;12.10;41.90
48589;DHT22;34369;51.174;6.738;2023-04-25T11:38:48;12.20;42.60
48589;DHT22;34369;51.174;6.738;2023-04-25T11:41:20;12.30;42.60
48589;DHT22;34369;51.174;6.738;2023-04-25T11:43:54;12.40;42.00
48589;DHT22;34369;51.174;6.738;2023-04-25T11:46:26;12.40;41.90
48589;DHT22;34369;51.174;6.738;2023-04-25T11:48:59;12.50;41.70
48589;DHT22;34369;51.174;6.738;2023-04-25T11:51:38;12.40;42.00
48589;DHT22;34369;51.174;6.738;2023-04-25T11:54:11;12.40;41.50
48589;DHT22;34369;51.174;6.738;2023-04-25T11:56:44;12.40;41.90
48589;DHT22;34369;51.174;6.738;2023-04-25T11:59:23;12.30;41.80
48589;DHT22;34369;51.174;6.738;2023-04-25T12:01:59;12.20;41.60
48589;DHT22;34369;51.174;6.738;2023-04-25T12:04:33;12.20;42.10
48589;DHT22;34369;51.174;6.738;2023-04-25T12:07:10;12.10;42.20
48589;DHT22;34369;51.174;6.738;2023-04-25T12:09:43;12.00;42.00
48589;DHT22;34369;51.174;6.738;2023-04-25T12:12:15;11.90;42.10
48589;DHT22;34369;51.174;6.738;2023-04-25T12:14:51;11.80;41.60
48589;DHT22;34369;51.174;6.738;2023-04-25T12:17:28;11.70;41.50
48589;DHT22;34369;51.174;6.738;2023-04-25T12:20:07;11.60;42.60
48589;DHT22;34369;51.174;6.738;2023-04-25T12:22:42;11.50;43.50
48589;DHT22;34369;51.174;6.738;2023-04-25T12:25:34;11.40;43.90
48589;DHT22;34369;51.174;6.738;2023-04-25T12:28:16;11.40;44.10
48589;DHT22;34369;51.174;6.738;2023-04-25T12:31:07;11.40;44.00
48589;DHT22;34369;51.174;6.738;2023-04-25T12:33:40;11.40;44.20
48589;DHT22;34369;51.174;6.738;2023-04-25T12:36:13;11.30;44.40
48589;DHT22;34369;51.174;6.738;2023-04-25T12:38:47;11.20;44.70
48589;DHT22;34369;51.174;6.738;2023-04-25T12:41:20;11.30;44.50
48589;DHT22;34369;51.174;6.738;2023-04-25T12:43:53;11.20;44.70
48589;DHT22;34369;51.174;6.738;2023-04-25T12:46:27;11.20;43.90
48589;DHT22;34369;51.174;6.738;2023-04-25T12:49:04;11.40;45.30
48589;DHT22;34369;51.174;6.738;2023-04-25T12:51:37;11.40;46.20
48589;DHT22;34369;51.174;6.738;2023-04-25T12:54:12;11.60;46.80
48589;DHT22;34369;51.174;6.738;2023-04-25T12:56:45;11.80;47.10
48589;DHT22;34369;51.174;6.738;2023-04-25T12:59:19;12.00;47.10
48589;DHT22;34369;51.174;6.738;2023-04-25T13:01:53;12.20;46.80
48589;DHT22;34369;51.174;6.738;2023-04-25T13:04:26;12.40;46.60
48589;DHT22;34369;51.174;6.738;2023-04-25T13:07:01;12.50;46.60
48589;DHT22;34369;51.174;6.738;2023-04-25T13:09:34;12.70;46.30
48589;DHT22;34369;51.174;6.738;2023-04-25T13:12:07;12.90;46.20
48589;DHT22;34369;51.174;6.738;2023-04-25T13:14:39;13.00;46.20
48589;DHT22;34369;51.174;6.738;2023-04-25T13:17:12;13.10;44.80
48589;DHT22;34369;51.174;6.738;2023-04-25T13:19:45;13.30;44.00
48589;DHT22;34369;51.174;6.738;2023-04-25T13:22:18;13.30;43.40
48589;DHT22;34369;51.174;6.738;2023-04-25T13:24:51;13.30;43.30
48589;DHT22;34369;51.174;6.738;2023-04-25T13:27:25;13.30;43.40
48589;DHT22;34369;51.174;6.738;2023-04-25T13:29:58;13.10;43.10
48589;DHT22;34369;51.174;6.738;2023-04-25T13:32:33;13.00;42.50
48589;DHT22;34369;51.174;6.738;2023-04-25T13:35:08;12.90;42.60
48589;DHT22;34369;51.174;6.738;2023-04-25T13:37:42;12.80;41.60
48589;DHT22;34369;51.174;6.738;2023-04-25T13:40:16;12.70;41.50
48589;DHT22;34369;51.174;6.738;2023-04-25T13:42:49;12.60;41.30
48589;DHT22;34369;51.174;6.738;2023-04-25T13:45:22;12.50;41.50
48589;DHT22;34369;51.174;6.738;2023-04-25T13:47:56;12.40;41.10
48589;DHT22;34369;51.174;6.738;2023-04-25T13:50:29;12.30;40.70
48589;DHT22;34369;51.174;6.738;2023-04-25T13:53:03;12.30;40.60
48589;DHT22;34369;51.174;6.738;2023-04-25T13:55:37;12.20;40.10
48589;DHT22;34369;51.174;6.738;2023-04-25T13:58:10;12.10;40.30
48589;DHT22;34369;51.174;6.738;2023-04-25T14:00:43;12.00;40.80
48589;DHT22;34369;51.174;6.738;2023-04-25T14:03:20;11.90;41.20
48589;DHT22;34369;51.174;6.738;2023-04-25T14:05:53;11.90;41.20
48589;DHT22;34369;51.174;6.738;2023-04-25T14:08:26;11.80;41.70
48589;DHT22;34369;51.174;6.738;2023-04-25T14:11:00;11.80;42.60
48589;DHT22;34369;51.174;6.738;2023-04-25T14:13:35;11.80;43.00
48589;DHT22;34369;51.174;6.738;2023-04-25T14:16:08;11.90;43.30
48589;DHT22;34369;51.174;6.738;2023-04-25T14:18:43;12.00;42.80
48589;DHT22;34369;51.174;6.738;2023-04-25T14:21:15;12.10;42.30
48589;DHT22;34369;51.174;6.738;2023-04-25T14:23:48;12.20;42.20
48589;DHT22;34369;51.174;6.738;2023-04-25T14:26:21;12.20;42.30
48589;DHT22;34369;51.174;6.738;2023-04-25T14:28:53;12.30;42.70
48589;DHT22;34369;51.174;6.738;2023-04-25T14:31:27;12.30;42.80
48589;DHT22;34369;51.174;6.738;2023-04-25T14:34:01;12.40;43.40
48589;DHT22;34369;51.174;6.738;2023-04-25T14:36:36;12.50;43.60
48589;DHT22;34369;51.174;6.738;2023-04-25T14:39:09;12.60;44.00
48589;DHT22;34369;51.174;6.738;2023-04-25T14:41:43;12.80;43.40
48589;DHT22;34369;51.174;6.738;2023-04-25T14:44:16;13.00;43.70
48589;DHT22;34369;51.174;6.738;2023-04-25T14:46:48;13.10;43.20
48589;DHT22;34369;51.174;6.738;2023-04-25T14:49:24;13.20;43.10
48589;DHT22;34369;51.174;6.738;2023-04-25T14:51:58;13.30;43.30
48589;DHT22;34369;51.174;6.738;2023-04-25T14:54:33;13.50;43.60
48589;DHT22;34369;51.174;6.738;2023-04-25T14:57:07;13.50;43.20
48589;DHT22;34369;51.174;6.738;2023-04-25T14:59:41;13.60;42.90
48589;DHT22;34369;51.174;6.738;2023-04-25T15:02:13;13.70;42.40
48589;DHT22;34369;51.174;6.738;2023-04-25T15:04:49;13.70;41.90
48589;DHT22;34369;51.174;6.738;2023-04-25T15:07:22;13.70;41.60
48589;DHT22;34369;51.174;6.738;2023-04-25T15:09:55;13.70;41.50
48589;DHT22;34369;51.174;6.738;2023-04-25T15:12:28;13.60;41.30
48589;DHT22;34369;51.174;6.738;2023-04-25T15:15:01;13.50;41.00
48589;DHT22;34369;51.174;6.738;2023-04-25T15:17:33;13.30;41.60
48589;DHT22;34369;51.174;6.738;2023-04-25T15:20:12;13.30;41.40
48589;DHT22;34369;51.174;6.738;2023-04-25T15:22:47;13.10;40.80
48589;DHT22;34369;51.174;6.738;2023-04-25T15:25:19;13.00;41.20
48589;DHT22;34369;51.174;6.738;2023-04-25T15:27:52;12.90;41.80
48589;DHT22;34369;51.174;6.738;2023-04-25T15:30:25;12.80;42.40
48589;DHT22;34369;51.174;6.738;2023-04-25T15:32:58;12.70;42.00
48589;DHT22;34369;51.174;6.738;2023-04-25T15:35:33;12.70;41.90
48589;DHT22;34369;51.174;6.738;2023-04-25T15:38:08;12.70;40.90
48589;DHT22;34369;51.174;6.738;2023-04-25T15:40:43;12.70;40.50
48589;DHT22;34369;51.174;6.738;2023-04-25T15:43:20;12.70;41.00
48589;DHT22;34369;51.174;6.738;2023-04-25T15:45:53;12.60;41.40
48589;DHT22;34369;51.174;6.738;2023-04-25T15:48:25;12.50;41.00
48589;DHT22;34369;51.174;6.738;2023-04-25T15:51:00;12.50;41.20
48589;DHT22;34369;51.174;6.738;2023-04-25T15:53:33;12.50;41.80
48589;DHT22;34369;51.174;6.738;2023-04-25T15:56:08;12.60;41.70
48589;DHT22;34369;51.174;6.738;2023-04-25T15:58:41;12.70;41.90
48589;DHT22;34369;51.174;6.738;2023-04-25T16:01:13;12.70;41.10
48589;DHT22;34369;51.174;6.738;2023-04-25T16:03:48;12.70;41.10
48589;DHT22;34369;51.174;6.738;2023-04-25T16:06:25;12.60;41.30
48589;DHT22;34369;51.174;6.738;2023-04-25T16:08:58;12.70;41.40
48589;DHT22;34369;51.174;6.738;2023-04-25T16:11:31;12.70;41.60
48589;DHT22;34369;51.174;6.738;2023-04-25T16:14:03;12.70;41.40
48589;DHT22;34369;51.174;6.738;2023-04-25T16:16:36;12.70;40.70
48589;DHT22;34369;51.174;6.738;2023-04-25T16:19:09;12.70;40.60